Time,TemperatureF,DewpointF,PressureIn,WindDirection,WindDirectionDegrees,WindSpeedMPH,WindSpeedGustMPH,Humidity,HourlyPrecipIn,Conditions,Clouds,dailyrainin,SoftwareType,DateUTC
2013-08-04 00:01:00,66.7,64.9,29.94,South,190,0.0,0.0,94,0.00,,,0.00,meteobridge,2013-08-04 04:01:00,
2013-08-04 00:02:00,66.7,64.9,29.94,South,190,0.0,0.0,94,0.00,,,0.00,meteobridge,2013-08-04 04:02:00,
2013-08-04 00:03:00,66.7,64.9,29.94,South,190,0.0,0.0,94,0.00,,,0.00,meteobridge,2013-08-04 04:03:00,
2013-08-04 00:08:00,66.7,64.9,29.94,South,190,0.0,0.0,94,0.00,,,0.00,meteobridge,2013-08-04 04:08:00,
2013-08-04 00:13:00,66.7,64.9,29.94,South,190,0.0,0.0,94,0.00,,,0.00,meteobridge,2013-08-04 04:13:00,
2013-08-04 00:18:00,66.7,64.9,29.94,South,190,0.0,0.0,94,0.00,,,0.00,meteobridge,2013-08-04 04:18:00,
2013-08-04 00:24:00,66.6,64.8,29.94,South,190,0.0,0.0,94,0.00,,,0.00,meteobridge,2013-08-04 04:24:00,
2013-08-04 00:29:00,66.6,64.8,29.94,South,190,0.0,0.0,94,0.00,,,0.00,meteobridge,2013-08-04 04:29:00,
2013-08-04 00:34:00,66.4,64.6,29.94,SSW,194,0.0,0.9,94,0.00,,,0.00,meteobridge,2013-08-04 04:34:00,
2013-08-04 00:39:00,66.4,64.6,29.94,SSW,194,0.0,0.0,94,0.00,,,0.00,meteobridge,2013-08-04 04:39:00,
2013-08-04 00:44:00,66.2,64.4,29.94,SSW,194,0.0,0.9,94,0.00,,,0.00,meteobridge,2013-08-04 04:44:00,
2013-08-04 00:50:00,66.0,64.2,29.94,SSW,194,0.0,0.0,94,0.00,,,0.00,meteobridge,2013-08-04 04:50:00,
2013-08-04 00:55:00,66.0,64.2,29.93,SSW,194,0.0,0.0,94,0.00,,,0.00,meteobridge,2013-08-04 04:55:00,
2013-08-04 00:59:00,65.8,64.0,29.93,SSW,194,0.0,0.0,94,0.00,,,0.00,meteobridge,2013-08-04 04:59:00,
2013-08-04 01:05:00,65.8,64.4,29.93,SSW,194,0.0,0.0,95,0.00,,,0.00,meteobridge,2013-08-04 05:05:00,
2013-08-04 01:10:00,65.8,64.4,29.93,SSW,194,0.0,0.0,95,0.00,,,0.00,meteobridge,2013-08-04 05:10:00,
2013-08-04 01:15:00,65.8,64.4,29.93,SSW,194,0.0,0.0,95,0.00,,,0.00,meteobridge,2013-08-04 05:15:00,
2013-08-04 01:21:00,65.8,64.4,29.93,SSW,194,0.0,0.0,95,0.00,,,0.00,meteobridge,2013-08-04 05:21:00,
2013-08-04 01:26:00,65.7,64.2,29.92,SSW,194,0.0,0.0,95,0.00,,,0.00,meteobridge,2013-08-04 05:26:00,
2013-08-04 01:31:00,65.7,64.2,29.92,SSW,194,0.0,2.0,95,0.00,,,0.00,meteobridge,2013-08-04 05:31:00,
2013-08-04 01:36:00,65.7,64.2,29.92,SSW,194,0.0,0.0,95,0.00,,,0.00,meteobridge,2013-08-04 05:36:00,
2013-08-04 01:41:00,65.7,64.2,29.92,SSW,194,0.0,0.0,95,0.00,,,0.00,meteobridge,2013-08-04 05:41:00,
2013-08-04 01:46:00,65.7,64.4,29.92,SSW,194,0.0,0.0,96,0.00,,,0.00,meteobridge,2013-08-04 05:46:00,
2013-08-04 01:51:00,65.7,64.4,29.92,SSW,194,0.0,0.0,96,0.00,,,0.00,meteobridge,2013-08-04 05:51:00,
2013-08-04 01:56:00,65.7,64.4,29.92,SSW,194,0.0,0.0,96,0.00,,,0.00,meteobridge,2013-08-04 05:56:00,
2013-08-04 02:02:00,65.7,64.4,29.92,SSW,194,0.0,0.0,96,0.00,,,0.00,meteobridge,2013-08-04 06:02:00,
2013-08-04 02:07:00,65.7,64.4,29.92,SSW,194,0.0,0.0,96,0.00,,,0.00,meteobridge,2013-08-04 06:07:00,
2013-08-04 02:12:00,65.5,64.0,29.92,SSW,194,0.0,0.0,95,0.00,,,0.00,meteobridge,2013-08-04 06:12:00,
2013-08-04 02:17:00,65.5,64.2,29.92,SSW,194,0.0,0.0,96,0.00,,,0.00,meteobridge,2013-08-04 06:17:00,
2013-08-04 02:22:00,65.1,64.0,29.92,SSW,194,0.0,0.0,96,0.00,,,0.00,meteobridge,2013-08-04 06:22:00,
2013-08-04 02:28:00,65.1,64.0,29.92,SSW,194,0.0,0.0,96,0.00,,,0.00,meteobridge,2013-08-04 06:28:00,
2013-08-04 02:33:00,65.1,64.0,29.92,SSW,194,0.0,0.0,96,0.00,,,0.00,meteobridge,2013-08-04 06:33:00,
2013-08-04 02:38:00,65.1,64.0,29.92,SSW,194,0.0,0.0,96,0.00,,,0.00,meteobridge,2013-08-04 06:38:00,
2013-08-04 02:43:00,65.1,64.0,29.92,SSW,194,0.0,0.0,96,0.00,,,0.00,meteobridge,2013-08-04 06:43:00,
2013-08-04 02:48:00,65.1,64.0,29.92,WNW,297,0.0,2.9,96,0.00,,,0.00,meteobridge,2013-08-04 06:48:00,
2013-08-04 02:54:00,65.1,64.0,29.92,WNW,297,0.0,0.0,96,0.00,,,0.00,meteobridge,2013-08-04 06:54:00,
2013-08-04 02:59:00,64.9,63.9,29.92,WNW,297,0.0,0.9,96,0.00,,,0.00,meteobridge,2013-08-04 06:59:00,
2013-08-04 03:04:00,64.9,63.9,29.92,WNW,297,0.0,0.0,96,0.00,,,0.00,meteobridge,2013-08-04 07:04:00,
2013-08-04 03:09:00,64.9,63.9,29.92,WNW,297,0.0,2.0,96,0.00,,,0.00,meteobridge,2013-08-04 07:09:00,
2013-08-04 03:14:00,64.9,63.9,29.92,WNW,297,0.0,0.9,96,0.00,,,0.00,meteobridge,2013-08-04 07:14:00,
2013-08-04 03:19:00,64.9,63.9,29.92,WNW,297,0.0,0.0,96,0.00,,,0.00,meteobridge,2013-08-04 07:19:00,
2013-08-04 03:25:00,64.9,63.9,29.92,WNW,297,0.0,0.0,96,0.00,,,0.00,meteobridge,2013-08-04 07:25:00,
2013-08-04 03:30:00,64.8,63.7,29.92,WNW,297,0.0,0.0,96,0.00,,,0.00,meteobridge,2013-08-04 07:30:00,
2013-08-04 03:35:00,64.8,63.7,29.92,WNW,297,0.0,0.0,96,0.00,,,0.00,meteobridge,2013-08-04 07:35:00,
2013-08-04 03:40:00,64.6,63.5,29.92,WNW,297,0.0,0.0,96,0.00,,,0.00,meteobridge,2013-08-04 07:40:00,
2013-08-04 03:45:00,64.4,63.3,29.92,WNW,297,0.0,0.0,96,0.00,,,0.00,meteobridge,2013-08-04 07:45:00,
2013-08-04 03:50:00,64.2,63.1,29.91,WNW,297,0.0,0.0,96,0.00,,,0.00,meteobridge,2013-08-04 07:50:00,
2013-08-04 03:56:00,64.0,63.0,29.92,WNW,297,0.0,0.0,96,0.00,,,0.00,meteobridge,2013-08-04 07:56:00,
2013-08-04 04:01:00,64.0,63.0,29.92,WNW,297,0.0,0.0,96,0.00,,,0.00,meteobridge,2013-08-04 08:01:00,
2013-08-04 04:06:00,63.9,62.8,29.92,WNW,297,0.0,0.0,96,0.00,,,0.00,meteobridge,2013-08-04 08:06:00,
2013-08-04 04:11:00,63.7,62.6,29.91,WNW,297,0.0,0.0,96,0.00,,,0.00,meteobridge,2013-08-04 08:11:00,
2013-08-04 04:16:00,63.5,62.4,29.91,WNW,297,0.0,0.0,96,0.00,,,0.00,meteobridge,2013-08-04 08:16:00,
2013-08-04 04:21:00,63.3,62.2,29.91,WNW,297,0.0,0.0,96,0.00,,,0.00,meteobridge,2013-08-04 08:21:00,
2013-08-04 04:26:00,63.5,62.4,29.91,WNW,297,0.0,0.0,96,0.00,,,0.00,meteobridge,2013-08-04 08:26:00,
2013-08-04 04:32:00,63.3,62.2,29.91,WNW,297,0.0,0.0,96,0.00,,,0.00,meteobridge,2013-08-04 08:32:00,
2013-08-04 04:37:00,63.3,62.2,29.92,WNW,297,0.0,0.0,96,0.00,,,0.00,meteobridge,2013-08-04 08:37:00,
2013-08-04 04:42:00,63.1,62.1,29.91,WNW,297,0.0,0.0,96,0.00,,,0.00,meteobridge,2013-08-04 08:42:00,
2013-08-04 04:47:00,63.0,61.9,29.91,WNW,297,0.0,0.0,96,0.00,,,0.00,meteobridge,2013-08-04 08:47:00,
2013-08-04 04:52:00,63.0,61.9,29.91,WNW,297,0.0,0.0,96,0.00,,,0.00,meteobridge,2013-08-04 08:52:00,
2013-08-04 04:58:00,62.8,61.7,29.91,WNW,297,0.0,0.0,96,0.00,,,0.00,meteobridge,2013-08-04 08:58:00,
2013-08-04 05:03:00,62.8,61.7,29.91,WNW,297,0.0,0.0,96,0.00,,,0.00,meteobridge,2013-08-04 09:03:00,
2013-08-04 05:08:00,62.6,61.7,29.91,WNW,297,0.0,0.0,97,0.00,,,0.00,meteobridge,2013-08-04 09:08:00,
2013-08-04 05:13:00,62.4,61.5,29.91,WNW,297,0.0,0.0,97,0.00,,,0.00,meteobridge,2013-08-04 09:13:00,
2013-08-04 05:18:00,62.6,61.7,29.91,WNW,297,0.0,0.0,97,0.00,,,0.00,meteobridge,2013-08-04 09:18:00,
2013-08-04 05:23:00,62.6,61.7,29.91,WNW,297,0.0,0.0,97,0.00,,,0.00,meteobridge,2013-08-04 09:23:00,
2013-08-04 05:29:00,62.4,61.5,29.91,WNW,297,0.0,0.0,97,0.00,,,0.00,meteobridge,2013-08-04 09:29:00,
2013-08-04 05:34:00,62.4,61.5,29.91,WNW,297,0.0,0.0,97,0.00,,,0.00,meteobridge,2013-08-04 09:34:00,
2013-08-04 05:39:00,62.2,61.3,29.91,WNW,297,0.0,0.0,97,0.00,,,0.00,meteobridge,2013-08-04 09:39:00,
2013-08-04 05:44:00,62.1,61.2,29.92,WNW,297,0.0,0.0,97,0.00,,,0.00,meteobridge,2013-08-04 09:44:00,
2013-08-04 05:49:00,62.1,61.2,29.92,WNW,297,0.0,0.0,97,0.00,,,0.00,meteobridge,2013-08-04 09:49:00,
2013-08-04 05:54:00,62.1,61.2,29.92,WNW,297,0.0,0.0,97,0.00,,,0.00,meteobridge,2013-08-04 09:54:00,
2013-08-04 05:59:00,61.9,61.0,29.92,WNW,297,0.0,0.0,97,0.00,,,0.00,meteobridge,2013-08-04 09:59:00,
2013-08-04 06:05:00,61.9,61.0,29.92,WNW,297,0.0,0.0,97,0.00,,,0.00,meteobridge,2013-08-04 10:05:00,
2013-08-04 06:10:00,61.7,60.8,29.92,WNW,297,0.0,0.0,97,0.00,,,0.00,meteobridge,2013-08-04 10:10:00,
2013-08-04 06:15:00,61.5,60.6,29.93,WNW,297,0.0,0.0,97,0.00,,,0.00,meteobridge,2013-08-04 10:15:00,
2013-08-04 06:20:00,61.3,60.4,29.93,WNW,297,0.0,0.0,97,0.00,,,0.00,meteobridge,2013-08-04 10:20:00,
2013-08-04 06:25:00,61.3,60.4,29.93,WNW,297,0.0,0.0,97,0.00,,,0.00,meteobridge,2013-08-04 10:25:00,
2013-08-04 06:31:00,61.5,60.6,29.93,WNW,297,0.0,0.0,97,0.00,,,0.00,meteobridge,2013-08-04 10:31:00,
2013-08-04 06:36:00,61.5,60.6,29.93,WNW,297,0.0,0.0,97,0.00,,,0.00,meteobridge,2013-08-04 10:36:00,
2013-08-04 06:41:00,61.5,60.6,29.93,WNW,297,0.0,0.0,97,0.00,,,0.00,meteobridge,2013-08-04 10:41:00,
2013-08-04 06:46:00,61.3,60.4,29.93,WNW,297,0.0,0.0,97,0.00,,,0.00,meteobridge,2013-08-04 10:46:00,
2013-08-04 06:51:00,61.7,60.8,29.93,WNW,297,0.0,0.0,97,0.00,,,0.00,meteobridge,2013-08-04 10:51:00,
2013-08-04 06:56:00,62.1,61.2,29.93,WNW,297,0.0,0.0,97,0.00,,,0.00,meteobridge,2013-08-04 10:56:00,
2013-08-04 07:01:00,62.2,61.7,29.93,WNW,297,0.0,0.0,98,0.00,,,0.00,meteobridge,2013-08-04 11:01:00,
2013-08-04 07:06:00,62.2,61.7,29.93,WNW,297,0.0,0.0,98,0.00,,,0.00,meteobridge,2013-08-04 11:06:00,
2013-08-04 07:11:00,62.2,61.3,29.93,WNW,297,0.0,0.0,97,0.00,,,0.00,meteobridge,2013-08-04 11:11:00,
2013-08-04 07:17:00,62.4,61.5,29.94,WNW,297,0.0,0.0,97,0.00,,,0.00,meteobridge,2013-08-04 11:17:00,
2013-08-04 07:22:00,62.8,62.2,29.94,WNW,297,0.0,0.0,98,0.00,,,0.00,meteobridge,2013-08-04 11:22:00,
2013-08-04 07:27:00,63.0,62.4,29.94,WNW,297,0.0,0.0,98,0.00,,,0.00,meteobridge,2013-08-04 11:27:00,
2013-08-04 07:32:00,63.1,62.6,29.94,WNW,297,0.0,0.9,98,0.00,,,0.00,meteobridge,2013-08-04 11:32:00,
2013-08-04 07:37:00,63.3,62.8,29.95,WNW,297,0.0,0.0,98,0.00,,,0.00,meteobridge,2013-08-04 11:37:00,
2013-08-04 07:43:00,63.3,62.8,29.95,WNW,297,2.0,4.0,98,0.00,,,0.00,meteobridge,2013-08-04 11:43:00,
2013-08-04 07:48:00,63.3,62.8,29.95,WNW,297,0.0,2.0,98,0.00,,,0.00,meteobridge,2013-08-04 11:48:00,
2013-08-04 07:53:00,63.7,62.8,29.95,WNW,297,0.0,0.0,97,0.00,,,0.00,meteobridge,2013-08-04 11:53:00,
2013-08-04 07:57:00,63.9,63.0,29.95,WNW,297,2.9,2.9,97,0.00,,,0.00,meteobridge,2013-08-04 11:57:00,
2013-08-04 08:03:00,64.0,63.5,29.95,WNW,297,0.0,0.9,98,0.00,,,0.00,meteobridge,2013-08-04 12:03:00,
2013-08-04 08:08:00,64.4,63.5,29.95,WNW,297,0.0,2.0,97,0.00,,,0.00,meteobridge,2013-08-04 12:08:00,
2013-08-04 08:13:00,64.6,63.5,29.95,WNW,297,0.9,0.9,96,0.00,,,0.00,meteobridge,2013-08-04 12:13:00,
2013-08-04 08:17:00,64.8,63.3,29.95,WNW,297,2.0,4.0,95,0.00,,,0.00,meteobridge,2013-08-04 12:17:00,
2013-08-04 08:23:00,64.9,62.6,29.95,WNW,303,0.0,0.9,92,0.00,,,0.00,meteobridge,2013-08-04 12:23:00,
2013-08-04 08:28:00,65.5,62.4,29.95,NNE,24,2.0,2.9,90,0.00,,,0.00,meteobridge,2013-08-04 12:28:00,
2013-08-04 08:33:00,66.2,62.2,29.95,NNW,344,0.0,4.0,87,0.00,,,0.00,meteobridge,2013-08-04 12:33:00,
2013-08-04 08:38:00,66.9,61.9,29.95,NNE,30,0.0,2.0,84,0.00,,,0.00,meteobridge,2013-08-04 12:38:00,
2013-08-04 08:44:00,67.8,61.7,29.95,NNE,29,0.9,2.9,81,0.00,,,0.00,meteobridge,2013-08-04 12:44:00,
2013-08-04 08:49:00,68.5,62.1,29.95,North,5,4.9,4.9,80,0.00,,,0.00,meteobridge,2013-08-04 12:49:00,
2013-08-04 08:54:00,69.4,61.2,29.95,NNE,27,0.9,4.0,75,0.00,,,0.00,meteobridge,2013-08-04 12:54:00,
2013-08-04 08:59:00,70.2,61.9,29.95,East,86,2.0,2.0,75,0.00,,,0.00,meteobridge,2013-08-04 12:59:00,
2013-08-04 09:04:00,70.9,62.2,29.95,NNW,336,2.0,4.0,74,0.00,,,0.00,meteobridge,2013-08-04 13:04:00,
2013-08-04 09:09:00,71.4,62.8,29.95,NNW,348,0.9,2.9,74,0.00,,,0.00,meteobridge,2013-08-04 13:09:00,
2013-08-04 09:15:00,72.1,61.9,29.95,North,5,0.9,6.0,70,0.00,,,0.00,meteobridge,2013-08-04 13:15:00,
2013-08-04 09:19:00,72.5,61.3,29.95,NE,49,2.0,4.9,68,0.00,,,0.00,meteobridge,2013-08-04 13:19:00,
2013-08-04 09:25:00,72.7,61.5,29.95,NW,317,2.0,4.0,68,0.00,,,0.00,meteobridge,2013-08-04 13:25:00,
2013-08-04 09:30:00,72.9,61.7,29.95,NNW,348,2.9,4.0,68,0.00,,,0.00,meteobridge,2013-08-04 13:30:00,
2013-08-04 09:35:00,73.2,62.1,29.95,NW,315,2.0,4.0,68,0.00,,,0.00,meteobridge,2013-08-04 13:35:00,
2013-08-04 09:40:00,73.6,61.2,29.95,NNE,17,0.0,6.0,65,0.00,,,0.00,meteobridge,2013-08-04 13:40:00,
2013-08-04 09:45:00,73.6,62.4,29.95,NNE,23,0.0,0.0,68,0.00,,,0.00,meteobridge,2013-08-04 13:45:00,
2013-08-04 09:50:00,73.8,62.6,29.95,NNE,24,0.0,0.9,68,0.00,,,0.00,meteobridge,2013-08-04 13:50:00,
2013-08-04 09:55:00,73.9,61.9,29.95,NW,319,2.0,4.9,66,0.00,,,0.00,meteobridge,2013-08-04 13:55:00,
2013-08-04 10:00:00,74.1,63.3,29.95,NW,319,0.0,0.9,69,0.00,,,0.00,meteobridge,2013-08-04 14:00:00,
2013-08-04 10:05:00,74.5,63.1,29.95,NNW,333,2.9,2.9,68,0.00,,,0.00,meteobridge,2013-08-04 14:05:00,
2013-08-04 10:10:00,74.8,63.1,29.95,NNW,332,0.0,2.0,67,0.00,,,0.00,meteobridge,2013-08-04 14:10:00,
2013-08-04 10:15:00,75.6,63.0,29.95,WNW,286,0.9,2.0,65,0.00,,,0.00,meteobridge,2013-08-04 14:15:00,
2013-08-04 10:20:00,75.9,63.3,29.95,West,281,2.0,2.0,65,0.00,,,0.00,meteobridge,2013-08-04 14:20:00,
2013-08-04 10:25:00,76.6,62.2,29.95,NNE,29,0.0,4.0,61,0.00,,,0.00,meteobridge,2013-08-04 14:25:00,
2013-08-04 10:31:00,76.8,61.9,29.95,West,278,2.0,2.0,60,0.00,,,0.00,meteobridge,2013-08-04 14:31:00,
2013-08-04 10:36:00,77.2,61.3,29.94,WNW,298,2.0,4.0,58,0.00,,,0.00,meteobridge,2013-08-04 14:36:00,
2013-08-04 10:40:00,77.7,62.8,29.95,NW,315,4.0,4.9,60,0.00,,,0.00,meteobridge,2013-08-04 14:40:00,
2013-08-04 10:45:00,78.3,62.2,29.95,NW,323,2.0,4.9,58,0.00,,,0.00,meteobridge,2013-08-04 14:45:00,
2013-08-04 10:51:00,78.6,63.1,29.95,NW,317,2.0,6.0,59,0.00,,,0.00,meteobridge,2013-08-04 14:51:00,
2013-08-04 10:55:00,79.3,63.3,29.95,WSW,252,0.0,4.9,58,0.00,,,0.00,meteobridge,2013-08-04 14:55:00,
2013-08-04 11:01:00,80.2,63.1,29.95,North,0,0.0,2.9,56,0.00,,,0.00,meteobridge,2013-08-04 15:01:00,
2013-08-04 11:06:00,80.4,62.8,29.95,NNE,26,6.0,8.1,55,0.00,,,0.00,meteobridge,2013-08-04 15:06:00,
2013-08-04 11:11:00,80.4,62.2,29.95,NW,325,0.9,6.0,54,0.00,,,0.00,meteobridge,2013-08-04 15:11:00,
2013-08-04 11:16:00,80.4,62.8,29.95,NNW,338,4.0,4.0,55,0.00,,,0.00,meteobridge,2013-08-04 15:16:00,
2013-08-04 11:21:00,80.4,62.2,29.95,SW,236,0.0,4.0,54,0.00,,,0.00,meteobridge,2013-08-04 15:21:00,
2013-08-04 11:27:00,80.8,62.6,29.95,NE,43,2.9,6.0,54,0.00,,,0.00,meteobridge,2013-08-04 15:27:00,
2013-08-04 11:32:00,80.8,59.9,29.95,WNW,292,2.0,8.9,49,0.00,,,0.00,meteobridge,2013-08-04 15:32:00,
2013-08-04 11:37:00,80.8,61.5,29.95,NW,307,0.0,6.0,52,0.00,,,0.00,meteobridge,2013-08-04 15:37:00,
2013-08-04 11:42:00,80.6,60.8,29.95,NNE,23,8.1,8.1,51,0.00,,,0.00,meteobridge,2013-08-04 15:42:00,
2013-08-04 11:47:00,79.9,59.0,29.95,NW,313,2.0,8.1,49,0.00,,,0.00,meteobridge,2013-08-04 15:47:00,
2013-08-04 11:52:00,79.5,59.7,29.95,NNE,30,4.0,8.9,51,0.00,,,0.00,meteobridge,2013-08-04 15:52:00,
2013-08-04 11:57:00,79.0,59.9,29.95,North,0,4.0,4.9,52,0.00,,,0.00,meteobridge,2013-08-04 15:57:00,
2013-08-04 12:02:00,79.2,61.2,29.95,NW,319,2.0,2.0,54,0.00,,,0.00,meteobridge,2013-08-04 16:02:00,
2013-08-04 12:07:00,79.5,60.8,29.95,North,5,2.0,2.9,53,0.00,,,0.00,meteobridge,2013-08-04 16:07:00,
2013-08-04 12:12:00,80.1,60.8,29.94,North,9,0.9,4.0,52,0.00,,,0.00,meteobridge,2013-08-04 16:12:00,
2013-08-04 12:17:00,80.8,62.6,29.94,SSW,209,2.0,4.0,54,0.00,,,0.00,meteobridge,2013-08-04 16:17:00,
2013-08-04 12:23:00,79.9,61.2,29.94,SSW,209,0.0,2.9,53,0.00,,,0.00,meteobridge,2013-08-04 16:23:00,
2013-08-04 12:28:00,79.5,62.4,29.94,NW,323,2.0,2.9,56,0.00,,,0.00,meteobridge,2013-08-04 16:28:00,
2013-08-04 12:33:00,79.5,61.9,29.94,NNE,19,2.9,4.0,55,0.00,,,0.00,meteobridge,2013-08-04 16:33:00,
2013-08-04 12:38:00,80.1,61.3,29.94,NNW,338,2.0,6.9,53,0.00,,,0.00,meteobridge,2013-08-04 16:38:00,
2013-08-04 12:43:00,80.8,63.1,29.93,North,355,2.0,4.0,55,0.00,,,0.00,meteobridge,2013-08-04 16:43:00,
2013-08-04 12:48:00,82.2,63.3,29.93,NW,323,2.0,4.9,53,0.00,,,0.00,meteobridge,2013-08-04 16:48:00,
2013-08-04 12:53:00,82.8,62.2,29.94,NNW,332,0.0,0.9,50,0.00,,,0.00,meteobridge,2013-08-04 16:53:00,
2013-08-04 12:58:00,82.6,62.1,29.94,NNW,331,2.0,4.9,50,0.00,,,0.00,meteobridge,2013-08-04 16:58:00,
2013-08-04 13:03:00,82.2,61.7,29.94,NNE,22,0.0,4.9,50,0.00,,,0.00,meteobridge,2013-08-04 17:03:00,
2013-08-04 13:08:00,80.8,61.0,29.93,NW,321,6.0,6.0,51,0.00,,,0.00,meteobridge,2013-08-04 17:08:00,
2013-08-04 13:13:00,79.7,60.4,29.93,NNW,332,2.0,6.0,52,0.00,,,0.00,meteobridge,2013-08-04 17:13:00,
2013-08-04 13:18:00,79.9,62.2,29.93,NW,313,0.9,6.9,55,0.00,,,0.00,meteobridge,2013-08-04 17:18:00,
2013-08-04 13:23:00,80.8,61.5,29.93,West,275,4.9,10.1,52,0.00,,,0.00,meteobridge,2013-08-04 17:23:00,
2013-08-04 13:28:00,81.3,61.5,29.93,NW,322,2.9,6.0,51,0.00,,,0.00,meteobridge,2013-08-04 17:28:00,
2013-08-04 13:33:00,82.2,61.2,29.93,WNW,297,0.9,6.9,49,0.00,,,0.00,meteobridge,2013-08-04 17:33:00,
2013-08-04 13:38:00,82.2,61.2,29.93,North,355,4.9,8.1,49,0.00,,,0.00,meteobridge,2013-08-04 17:38:00,
2013-08-04 13:43:00,82.0,61.0,29.93,WNW,295,4.0,4.9,49,0.00,,,0.00,meteobridge,2013-08-04 17:43:00,
2013-08-04 13:49:00,81.5,60.4,29.93,North,350,2.0,8.1,49,0.00,,,0.00,meteobridge,2013-08-04 17:49:00,
2013-08-04 13:54:00,81.3,61.0,29.93,NW,319,12.1,13.0,50,0.00,,,0.00,meteobridge,2013-08-04 17:54:00,
2013-08-04 13:59:00,81.9,61.3,29.93,NW,321,2.0,6.9,50,0.00,,,0.00,meteobridge,2013-08-04 17:59:00,
2013-08-04 14:04:00,82.4,60.8,29.93,WNW,286,4.9,8.1,48,0.00,,,0.00,meteobridge,2013-08-04 18:04:00,
2013-08-04 14:08:00,82.9,62.4,29.92,NW,326,0.9,4.9,50,0.00,,,0.00,meteobridge,2013-08-04 18:08:00,
2013-08-04 14:14:00,83.3,61.5,29.92,NE,45,6.9,6.9,48,0.00,,,0.00,meteobridge,2013-08-04 18:14:00,
2013-08-04 14:19:00,82.8,61.7,29.92,NNW,337,2.0,6.0,49,0.00,,,0.00,meteobridge,2013-08-04 18:19:00,
2013-08-04 14:24:00,82.2,61.2,29.92,West,273,0.0,6.0,49,0.00,,,0.00,meteobridge,2013-08-04 18:24:00,
2013-08-04 14:29:00,82.6,59.7,29.92,South,184,2.9,8.1,46,0.00,,,0.00,meteobridge,2013-08-04 18:29:00,
2013-08-04 14:34:00,82.9,60.1,29.92,NNW,343,6.0,6.0,46,0.00,,,0.00,meteobridge,2013-08-04 18:34:00,
2013-08-04 14:39:00,82.9,59.4,29.92,North,351,0.0,11.0,45,0.00,,,0.00,meteobridge,2013-08-04 18:39:00,
2013-08-04 14:44:00,82.8,59.9,29.92,West,274,2.9,8.9,46,0.00,,,0.00,meteobridge,2013-08-04 18:44:00,
2013-08-04 14:49:00,82.8,61.0,29.92,NW,315,4.0,12.1,48,0.00,,,0.00,meteobridge,2013-08-04 18:49:00,
2013-08-04 14:54:00,81.7,60.6,29.92,NW,324,10.1,10.1,49,0.00,,,0.00,meteobridge,2013-08-04 18:54:00,
2013-08-04 14:59:00,80.8,60.4,29.92,NE,34,2.9,6.9,50,0.00,,,0.00,meteobridge,2013-08-04 18:59:00,
2013-08-04 15:04:00,80.8,60.4,29.92,North,355,2.9,8.9,50,0.00,,,0.00,meteobridge,2013-08-04 19:04:00,
2013-08-04 15:09:00,81.0,60.1,29.92,NW,315,2.9,4.9,49,0.00,,,0.00,meteobridge,2013-08-04 19:09:00,
2013-08-04 15:14:00,81.3,60.3,29.92,NW,311,0.0,10.1,49,0.00,,,0.00,meteobridge,2013-08-04 19:14:00,
2013-08-04 15:19:00,81.5,60.4,29.93,NW,309,6.9,8.9,49,0.00,,,0.00,meteobridge,2013-08-04 19:19:00,
2013-08-04 15:24:00,81.3,59.7,29.93,NNW,331,2.9,6.9,48,0.00,,,0.00,meteobridge,2013-08-04 19:24:00,
2013-08-04 15:29:00,81.1,58.5,29.92,WNW,296,4.9,12.1,46,0.00,,,0.00,meteobridge,2013-08-04 19:29:00,
2013-08-04 15:34:00,81.5,58.1,29.92,NNW,331,2.0,6.0,45,0.00,,,0.00,meteobridge,2013-08-04 19:34:00,
2013-08-04 15:39:00,81.5,57.6,29.92,West,281,8.1,8.9,44,0.00,,,0.00,meteobridge,2013-08-04 19:39:00,
2013-08-04 15:44:00,81.3,56.7,29.93,North,9,4.0,15.0,43,0.00,,,0.00,meteobridge,2013-08-04 19:44:00,
2013-08-04 15:49:00,81.0,55.8,29.92,NNW,331,6.0,8.9,42,0.00,,,0.00,meteobridge,2013-08-04 19:49:00,
2013-08-04 15:54:00,80.6,57.4,29.92,North,5,4.9,13.0,45,0.00,,,0.00,meteobridge,2013-08-04 19:54:00,
2013-08-04 15:59:00,81.0,57.0,29.92,NW,304,4.0,10.1,44,0.00,,,0.00,meteobridge,2013-08-04 19:59:00,
2013-08-04 16:04:00,81.3,57.9,29.92,NNW,341,4.9,8.1,45,0.00,,,0.00,meteobridge,2013-08-04 20:04:00,
2013-08-04 16:10:00,82.0,57.9,29.92,NW,319,2.0,6.0,44,0.00,,,0.00,meteobridge,2013-08-04 20:10:00,
2013-08-04 16:15:00,82.4,57.7,29.92,North,355,4.9,8.9,43,0.00,,,0.00,meteobridge,2013-08-04 20:15:00,
2013-08-04 16:20:00,82.4,57.0,29.92,NNE,17,8.1,8.9,42,0.00,,,0.00,meteobridge,2013-08-04 20:20:00,
2013-08-04 16:25:00,82.0,57.4,29.92,North,5,2.9,10.1,43,0.00,,,0.00,meteobridge,2013-08-04 20:25:00,
2013-08-04 16:29:00,81.1,57.2,29.92,NW,325,2.9,11.0,44,0.00,,,0.00,meteobridge,2013-08-04 20:29:00,
2013-08-04 16:35:00,81.1,57.7,29.92,NW,313,0.9,8.1,45,0.00,,,0.00,meteobridge,2013-08-04 20:35:00,
2013-08-04 16:40:00,81.1,57.7,29.92,NW,325,0.9,8.9,45,0.00,,,0.00,meteobridge,2013-08-04 20:40:00,
2013-08-04 16:45:00,81.5,57.6,29.92,West,269,2.9,8.9,44,0.00,,,0.00,meteobridge,2013-08-04 20:45:00,
2013-08-04 16:50:00,81.9,57.7,29.92,NW,313,2.0,10.1,44,0.00,,,0.00,meteobridge,2013-08-04 20:50:00,
2013-08-04 16:55:00,82.0,57.9,29.92,WNW,297,10.1,10.1,44,0.00,,,0.00,meteobridge,2013-08-04 20:55:00,
2013-08-04 17:00:00,81.9,57.7,29.92,WNW,300,2.9,8.1,44,0.00,,,0.00,meteobridge,2013-08-04 21:00:00,
2013-08-04 17:05:00,81.1,56.5,29.92,NW,311,6.0,10.1,43,0.00,,,0.00,meteobridge,2013-08-04 21:05:00,
2013-08-04 17:10:00,80.6,57.9,29.92,NW,322,0.9,6.9,46,0.00,,,0.00,meteobridge,2013-08-04 21:10:00,
2013-08-04 17:15:00,80.4,57.7,29.92,WNW,297,2.9,6.0,46,0.00,,,0.00,meteobridge,2013-08-04 21:15:00,
2013-08-04 17:20:00,80.2,58.1,29.92,NNE,30,8.1,8.1,47,0.00,,,0.00,meteobridge,2013-08-04 21:20:00,
2013-08-04 17:21:00,80.2,58.1,29.92,West,277,2.9,8.9,47,0.00,,,0.00,meteobridge,2013-08-04 21:21:00,
2013-08-04 17:27:00,79.9,57.2,29.92,WNW,299,0.9,6.0,46,0.00,,,0.00,meteobridge,2013-08-04 21:27:00,
2013-08-04 17:32:00,79.5,56.3,29.92,NNW,327,0.9,11.0,45,0.00,,,0.00,meteobridge,2013-08-04 21:32:00,
2013-08-04 17:37:00,79.2,56.7,29.92,NNW,341,6.0,8.9,46,0.00,,,0.00,meteobridge,2013-08-04 21:37:00,
2013-08-04 17:41:00,79.0,56.5,29.92,NNW,343,8.9,14.1,46,0.00,,,0.00,meteobridge,2013-08-04 21:41:00,
2013-08-04 17:47:00,78.8,56.8,29.92,North,355,4.9,11.0,47,0.00,,,0.00,meteobridge,2013-08-04 21:47:00,
2013-08-04 17:50:00,78.8,56.8,29.92,NW,306,4.9,4.9,47,0.00,,,0.00,meteobridge,2013-08-04 21:50:00,
2013-08-04 17:55:00,79.0,57.0,29.92,NNW,333,2.9,4.9,47,0.00,,,0.00,meteobridge,2013-08-04 21:55:00,
2013-08-04 18:00:00,78.8,56.8,29.93,NW,323,4.0,6.0,47,0.00,,,0.00,meteobridge,2013-08-04 22:00:00,
2013-08-04 18:05:00,78.6,57.2,29.93,ENE,78,2.9,6.9,48,0.00,,,0.00,meteobridge,2013-08-04 22:05:00,
2013-08-04 18:10:00,78.4,56.5,29.93,North,349,4.0,11.0,47,0.00,,,0.00,meteobridge,2013-08-04 22:10:00,
2013-08-04 18:15:00,78.4,57.2,29.93,SW,226,0.9,6.9,48,0.00,,,0.00,meteobridge,2013-08-04 22:15:00,
2013-08-04 18:20:00,78.3,57.0,29.93,West,269,6.0,8.9,48,0.00,,,0.00,meteobridge,2013-08-04 22:20:00,
2013-08-04 18:25:00,78.1,57.4,29.93,NNW,331,2.0,8.9,49,0.00,,,0.00,meteobridge,2013-08-04 22:25:00,
2013-08-04 18:30:00,77.9,57.7,29.93,North,0,2.0,6.0,50,0.00,,,0.00,meteobridge,2013-08-04 22:30:00,
2013-08-04 18:35:00,77.7,57.6,29.93,NW,321,0.9,4.0,50,0.00,,,0.00,meteobridge,2013-08-04 22:35:00,
2013-08-04 18:40:00,77.7,57.0,29.93,WNW,292,0.9,2.9,49,0.00,,,0.00,meteobridge,2013-08-04 22:40:00,
2013-08-04 18:45:00,77.5,57.4,29.94,NW,304,0.0,6.0,50,0.00,,,0.00,meteobridge,2013-08-04 22:45:00,
2013-08-04 18:51:00,77.4,57.2,29.94,NW,323,0.9,8.9,50,0.00,,,0.00,meteobridge,2013-08-04 22:51:00,
2013-08-04 18:56:00,77.2,57.7,29.94,WNW,287,2.9,4.9,51,0.00,,,0.00,meteobridge,2013-08-04 22:56:00,
2013-08-04 19:01:00,77.0,57.6,29.94,West,264,0.0,8.1,51,0.00,,,0.00,meteobridge,2013-08-04 23:01:00,
2013-08-04 19:06:00,76.8,57.4,29.94,NW,309,2.9,6.0,51,0.00,,,0.00,meteobridge,2013-08-04 23:06:00,
2013-08-04 19:11:00,76.6,57.7,29.95,NW,309,2.9,2.9,52,0.00,,,0.00,meteobridge,2013-08-04 23:11:00,
2013-08-04 19:16:00,76.5,58.1,29.95,NNE,17,2.0,2.0,53,0.00,,,0.00,meteobridge,2013-08-04 23:16:00,
2013-08-04 19:21:00,76.1,57.7,29.95,NNE,24,0.9,4.0,53,0.00,,,0.00,meteobridge,2013-08-04 23:21:00,
2013-08-04 19:27:00,75.9,58.1,29.95,NW,309,0.0,2.9,54,0.00,,,0.00,meteobridge,2013-08-04 23:27:00,
2013-08-04 19:32:00,75.7,57.9,29.95,NW,319,0.0,2.9,54,0.00,,,0.00,meteobridge,2013-08-04 23:32:00,
2013-08-04 19:37:00,75.6,58.3,29.95,NW,319,0.0,4.0,55,0.00,,,0.00,meteobridge,2013-08-04 23:37:00,
2013-08-04 19:41:00,75.4,58.1,29.96,NW,317,2.0,8.9,55,0.00,,,0.00,meteobridge,2013-08-04 23:41:00,
2013-08-04 19:47:00,75.0,58.3,29.96,WNW,294,2.0,4.9,56,0.00,,,0.00,meteobridge,2013-08-04 23:47:00,
2013-08-04 19:52:00,74.8,58.1,29.96,NW,315,2.0,6.9,56,0.00,,,0.00,meteobridge,2013-08-04 23:52:00,
2013-08-04 19:57:00,74.7,56.8,29.96,NW,321,2.9,11.0,54,0.00,,,0.00,meteobridge,2013-08-04 23:57:00,
2013-08-04 20:02:00,74.5,57.2,29.96,West,281,0.9,8.1,55,0.00,,,0.00,meteobridge,2013-08-05 00:02:00,
2013-08-04 20:07:00,74.1,56.5,29.97,NE,49,0.0,6.9,54,0.00,,,0.00,meteobridge,2013-08-05 00:07:00,
2013-08-04 20:12:00,73.9,56.8,29.97,West,278,0.0,6.9,55,0.00,,,0.00,meteobridge,2013-08-05 00:12:00,
2013-08-04 20:17:00,73.8,56.1,29.97,NW,309,4.9,8.1,54,0.00,,,0.00,meteobridge,2013-08-05 00:17:00,
2013-08-04 20:22:00,73.6,56.5,29.97,NW,314,4.0,4.9,55,0.00,,,0.00,meteobridge,2013-08-05 00:22:00,
2013-08-04 20:27:00,73.2,56.1,29.97,WNW,302,0.9,6.0,55,0.00,,,0.00,meteobridge,2013-08-05 00:27:00,
2013-08-04 20:32:00,73.0,56.5,29.98,WNW,302,0.0,2.9,56,0.00,,,0.00,meteobridge,2013-08-05 00:32:00,
2013-08-04 20:37:00,72.7,56.5,29.98,NW,315,0.0,4.0,57,0.00,,,0.00,meteobridge,2013-08-05 00:37:00,
2013-08-04 20:42:00,72.5,56.5,29.98,NNW,328,2.0,4.0,57,0.00,,,0.00,meteobridge,2013-08-05 00:42:00,
2013-08-04 20:47:00,72.1,56.5,29.98,NW,312,2.0,4.0,58,0.00,,,0.00,meteobridge,2013-08-05 00:47:00,
2013-08-04 20:52:00,72.0,56.3,29.99,NW,312,4.0,4.0,58,0.00,,,0.00,meteobridge,2013-08-05 00:52:00,
2013-08-04 20:58:00,71.8,56.7,29.99,NW,312,0.0,4.0,59,0.00,,,0.00,meteobridge,2013-08-05 00:58:00,
2013-08-04 21:03:00,71.6,56.5,29.99,NW,312,0.0,0.9,59,0.00,,,0.00,meteobridge,2013-08-05 01:03:00,
2013-08-04 21:08:00,71.2,56.7,30.00,NW,319,0.0,2.0,60,0.00,,,0.00,meteobridge,2013-08-05 01:08:00,
2013-08-04 21:13:00,71.1,56.5,30.00,NW,319,0.0,0.9,60,0.00,,,0.00,meteobridge,2013-08-05 01:13:00,
2013-08-04 21:19:00,70.9,56.3,30.00,NW,319,0.0,0.9,60,0.00,,,0.00,meteobridge,2013-08-05 01:19:00,
2013-08-04 21:24:00,70.5,56.5,30.00,NW,319,0.9,2.9,61,0.00,,,0.00,meteobridge,2013-08-05 01:24:00,
2013-08-04 21:29:00,70.3,56.7,30.00,NW,319,0.0,0.0,62,0.00,,,0.00,meteobridge,2013-08-05 01:29:00,
2013-08-04 21:34:00,70.2,56.5,30.01,NW,319,0.0,0.9,62,0.00,,,0.00,meteobridge,2013-08-05 01:34:00,
2013-08-04 21:39:00,69.8,56.7,30.01,NW,319,0.0,0.0,63,0.00,,,0.00,meteobridge,2013-08-05 01:39:00,
2013-08-04 21:44:00,69.4,56.3,30.01,NW,319,0.0,2.0,63,0.00,,,0.00,meteobridge,2013-08-05 01:44:00,
2013-08-04 21:50:00,69.3,56.5,30.01,NW,319,0.0,0.0,64,0.00,,,0.00,meteobridge,2013-08-05 01:50:00,
2013-08-04 21:55:00,69.1,56.8,30.01,NW,319,0.0,0.9,65,0.00,,,0.00,meteobridge,2013-08-05 01:55:00,
2013-08-04 22:00:00,68.7,56.5,30.01,NW,319,0.0,0.0,65,0.00,,,0.00,meteobridge,2013-08-05 02:00:00,
2013-08-04 22:05:00,68.5,56.3,30.01,NW,319,0.0,2.0,65,0.00,,,0.00,meteobridge,2013-08-05 02:05:00,
2013-08-04 22:10:00,68.4,56.5,30.01,NW,319,0.9,2.0,66,0.00,,,0.00,meteobridge,2013-08-05 02:10:00,
2013-08-04 22:15:00,68.2,56.8,30.01,NNE,13,2.9,4.0,67,0.00,,,0.00,meteobridge,2013-08-05 02:15:00,
2013-08-04 22:21:00,68.2,56.8,30.02,NNE,13,0.9,2.9,67,0.00,,,0.00,meteobridge,2013-08-05 02:21:00,
2013-08-04 22:25:00,68.2,56.8,30.02,NW,313,0.0,2.0,67,0.00,,,0.00,meteobridge,2013-08-05 02:25:00,
2013-08-04 22:31:00,68.2,56.8,30.02,NW,309,0.9,2.0,67,0.00,,,0.00,meteobridge,2013-08-05 02:31:00,
2013-08-04 22:36:00,68.2,56.3,30.02,NW,307,0.9,2.9,66,0.00,,,0.00,meteobridge,2013-08-05 02:36:00,
2013-08-04 22:41:00,68.2,56.3,30.02,NW,314,0.9,4.0,66,0.00,,,0.00,meteobridge,2013-08-05 02:41:00,
2013-08-04 22:46:00,68.4,56.1,30.02,NNW,336,2.0,4.9,65,0.00,,,0.00,meteobridge,2013-08-05 02:46:00,
2013-08-04 22:51:00,68.4,55.8,30.02,NNW,335,0.9,4.0,64,0.00,,,0.00,meteobridge,2013-08-05 02:51:00,
2013-08-04 22:56:00,68.4,55.8,30.02,North,5,0.9,2.9,64,0.00,,,0.00,meteobridge,2013-08-05 02:56:00,
2013-08-04 23:01:00,68.5,55.9,30.02,North,5,0.0,0.9,64,0.00,,,0.00,meteobridge,2013-08-05 03:01:00,
2013-08-04 23:06:00,68.4,55.8,30.02,NNW,343,0.0,2.0,64,0.00,,,0.00,meteobridge,2013-08-05 03:06:00,
2013-08-04 23:11:00,68.4,55.2,30.02,NNE,19,0.9,4.9,63,0.00,,,0.00,meteobridge,2013-08-05 03:11:00,
2013-08-04 23:16:00,68.4,54.9,30.02,NNE,19,0.9,2.9,62,0.00,,,0.00,meteobridge,2013-08-05 03:16:00,
2013-08-04 23:21:00,68.4,54.9,30.02,NNW,344,2.0,6.0,62,0.00,,,0.00,meteobridge,2013-08-05 03:21:00,
2013-08-04 23:26:00,68.4,54.9,30.02,WNW,302,8.1,8.1,62,0.00,,,0.00,meteobridge,2013-08-05 03:26:00,
2013-08-04 23:31:00,68.4,54.0,30.02,NNW,333,2.0,10.1,60,0.00,,,0.00,meteobridge,2013-08-05 03:31:00,
2013-08-04 23:36:00,68.5,53.6,30.03,NNW,331,0.9,8.1,59,0.00,,,0.00,meteobridge,2013-08-05 03:36:00,
2013-08-04 23:41:00,68.5,53.2,30.03,NNW,333,2.0,4.0,58,0.00,,,0.00,meteobridge,2013-08-05 03:41:00,
2013-08-04 23:46:00,68.5,53.2,30.03,NW,313,4.0,4.9,58,0.00,,,0.00,meteobridge,2013-08-05 03:46:00,
2013-08-04 23:52:00,68.5,53.2,30.03,North,355,0.0,6.9,58,0.00,,,0.00,meteobridge,2013-08-05 03:52:00,
2013-08-04 23:57:00,68.5,53.2,30.03,North,5,2.9,2.9,58,0.00,,,0.00,meteobridge,2013-08-05 03:57:00,